createdAt,value
2022-09-03T00:00:38.509Z,12.32
2022-09-03T00:01:38.520Z,12.32
2022-09-03T00:02:38.517Z,12.32
2022-09-03T00:03:38.462Z,12.36
2022-09-03T00:04:38.452Z,12.35
2022-09-03T00:05:38.501Z,12.35
2022-09-03T00:06:38.432Z,12.35
2022-09-03T00:07:38.422Z,12.35
2022-09-03T00:08:38.411Z,12.35
2022-09-03T00:09:38.402Z,12.31
2022-09-03T00:10:38.396Z,12.29
2022-09-03T00:11:38.400Z,12.27
2022-09-03T00:12:38.362Z,12.21
2022-09-03T00:13:38.352Z,12.17
2022-09-03T00:14:38.342Z,12.10
2022-09-03T00:15:38.382Z,12.07
2022-09-03T00:16:38.312Z,12.04
2022-09-03T00:17:38.333Z,12.00
2022-09-03T00:18:38.292Z,11.99
2022-09-03T00:19:38.295Z,11.97
2022-09-03T00:20:38.280Z,11.91
2022-09-03T00:21:38.283Z,11.91
2022-09-03T00:22:38.253Z,11.94
2022-09-03T00:23:38.272Z,11.91
2022-09-03T00:24:38.233Z,11.91
2022-09-03T00:25:38.238Z,11.94
2022-09-03T00:26:38.208Z,11.94
2022-09-03T00:27:38.201Z,11.91
2022-09-03T00:28:38.193Z,11.91
2022-09-03T00:29:38.199Z,11.88
2022-09-03T00:30:38.182Z,11.87
2022-09-03T00:31:38.188Z,11.86
2022-09-03T00:32:38.142Z,11.83
2022-09-03T00:33:38.130Z,11.84
2022-09-03T00:34:38.133Z,11.88
2022-09-03T00:35:38.121Z,11.94
2022-09-03T00:36:38.103Z,11.99
2022-09-03T00:37:38.520Z,11.97
2022-09-03T00:38:38.072Z,11.94
2022-09-03T00:39:38.130Z,11.90
2022-09-03T00:40:38.125Z,11.87
2022-09-03T00:41:38.047Z,11.83
2022-09-03T00:42:38.031Z,11.80
2022-09-03T00:43:38.013Z,11.80
2022-09-03T00:44:38.003Z,11.78
2022-09-03T00:45:37.994Z,11.78
2022-09-03T00:46:38.057Z,11.73
2022-09-03T00:47:37.973Z,11.72
2022-09-03T00:48:37.973Z,11.69
2022-09-03T00:49:37.954Z,11.68
2022-09-03T00:50:37.953Z,11.63
2022-09-03T00:51:37.953Z,11.62
2022-09-03T00:52:37.917Z,11.62
2022-09-03T00:53:37.903Z,11.63
2022-09-03T00:54:37.926Z,11.66
2022-09-03T00:55:37.873Z,11.66
2022-09-03T00:56:37.871Z,11.63
2022-09-03T00:57:37.884Z,11.62
2022-09-03T00:58:37.851Z,11.60
2022-09-03T00:59:37.833Z,11.62
2022-09-03T01:00:37.845Z,11.68
2022-09-03T01:01:37.907Z,11.70
2022-09-03T01:02:37.929Z,11.73
2022-09-03T01:03:37.806Z,11.75
2022-09-03T01:04:37.782Z,11.73
2022-09-03T01:05:37.793Z,11.73
2022-09-03T01:06:37.753Z,11.72
2022-09-03T01:07:37.752Z,11.69
2022-09-03T01:08:37.774Z,11.63
2022-09-03T01:09:37.724Z,11.59
2022-09-03T01:10:37.715Z,11.54
2022-09-03T01:11:37.702Z,11.54
2022-09-03T01:12:37.692Z,11.50
2022-09-03T01:13:37.674Z,11.44
2022-09-03T01:14:37.691Z,11.43
2022-09-03T01:15:37.680Z,11.37
2022-09-03T01:16:37.643Z,11.36
2022-09-03T01:17:37.642Z,11.35
2022-09-03T01:18:37.624Z,11.33
2022-09-03T01:19:37.619Z,11.32
2022-09-03T01:20:37.623Z,11.32
2022-09-03T01:21:37.584Z,11.33
2022-09-03T01:22:37.583Z,11.32
2022-09-03T01:23:37.563Z,11.36
2022-09-03T01:24:37.564Z,11.35
2022-09-03T01:25:37.563Z,11.37
2022-09-03T01:26:37.544Z,11.43
2022-09-03T01:27:37.615Z,11.40
2022-09-03T01:28:37.534Z,11.43
2022-09-03T01:29:39.777Z,11.43
2022-09-03T01:30:37.520Z,11.41
2022-09-03T01:31:37.502Z,11.41
2022-09-03T01:32:37.478Z,11.40
2022-09-03T01:33:37.451Z,11.40
2022-09-03T01:34:37.444Z,11.40
2022-09-03T01:35:37.434Z,11.41
2022-09-03T01:36:37.445Z,11.41
2022-09-03T01:37:37.404Z,11.37
2022-09-03T01:38:37.394Z,11.37
2022-09-03T01:39:37.412Z,11.35
2022-09-03T01:40:37.374Z,11.30
2022-09-03T01:41:37.368Z,11.26
2022-09-03T01:42:37.375Z,11.19
2022-09-03T01:43:39.193Z,11.17
2022-09-03T01:44:37.332Z,11.14
2022-09-03T01:45:37.322Z,11.12
2022-09-03T01:46:37.384Z,11.10
2022-09-03T01:47:37.315Z,11.07
2022-09-03T01:48:37.284Z,11.05
2022-09-03T01:49:37.275Z,11.04
2022-09-03T01:50:37.264Z,11.02
2022-09-03T01:51:37.245Z,10.99
2022-09-03T01:52:37.242Z,10.99
2022-09-03T01:53:37.234Z,10.99
2022-09-03T01:54:37.215Z,10.99
2022-09-03T01:55:37.205Z,10.99
2022-09-03T01:56:37.196Z,10.99
2022-09-03T01:57:37.500Z,10.97
2022-09-03T01:58:37.195Z,10.96
2022-09-03T01:59:37.162Z,10.94
2022-09-03T02:00:37.151Z,10.97
2022-09-03T02:01:37.199Z,11.00
2022-09-03T02:02:37.220Z,11.04
2022-09-03T02:03:40.851Z,11.08
2022-09-03T02:04:37.126Z,11.10
2022-09-03T02:05:37.093Z,11.10
2022-09-03T02:06:37.084Z,11.08
2022-09-03T02:07:37.072Z,11.10
2022-09-03T02:08:37.072Z,11.07
2022-09-03T02:09:37.092Z,11.08
2022-09-03T02:10:37.034Z,11.08
2022-09-03T02:11:37.034Z,11.08
2022-09-03T02:12:37.022Z,11.08
2022-09-03T02:13:37.003Z,11.11
2022-09-03T02:14:36.993Z,11.11
2022-09-03T02:15:37.098Z,11.11
2022-09-03T02:16:36.972Z,11.12
2022-09-03T02:17:36.954Z,11.10
2022-09-03T02:18:36.946Z,11.08
2022-09-03T02:19:36.932Z,11.05
2022-09-03T02:20:36.934Z,11.05
2022-09-03T02:21:36.929Z,11.05
2022-09-03T02:22:36.906Z,11.04
2022-09-03T02:23:36.886Z,11.02
2022-09-03T02:24:36.875Z,11.04
2022-09-03T02:25:36.868Z,11.07
2022-09-03T02:26:36.875Z,11.07
2022-09-03T02:27:36.845Z,11.05
2022-09-03T02:28:36.833Z,11.02
2022-09-03T02:29:36.815Z,10.99
2022-09-03T02:30:36.825Z,10.97
2022-09-03T02:31:36.796Z,10.94
2022-09-03T02:32:36.815Z,10.94
2022-09-03T02:33:36.776Z,10.94
2022-09-03T02:34:36.773Z,10.90
2022-09-03T02:35:36.754Z,10.90
2022-09-03T02:36:36.745Z,10.90
2022-09-03T02:37:36.726Z,10.94
2022-09-03T02:38:36.745Z,10.96
2022-09-03T02:39:39.401Z,10.96
2022-09-03T02:40:36.697Z,10.93
2022-09-03T02:41:36.685Z,10.92
2022-09-03T02:42:36.685Z,10.87
2022-09-03T02:43:36.664Z,10.86
2022-09-03T02:44:36.675Z,10.82
2022-09-03T02:45:36.638Z,10.82
2022-09-03T02:46:36.635Z,10.86
2022-09-03T02:47:36.618Z,10.84
2022-09-03T02:48:36.614Z,10.82
2022-09-03T02:49:36.594Z,10.82
2022-09-03T02:50:36.605Z,10.79
2022-09-03T02:51:36.578Z,10.81
2022-09-03T02:52:36.575Z,10.84
2022-09-03T02:53:36.553Z,10.89
2022-09-03T02:54:36.546Z,10.90
2022-09-03T02:55:36.525Z,10.90
2022-09-03T02:56:36.546Z,10.87
2022-09-03T02:57:36.504Z,10.84
2022-09-03T02:58:36.510Z,10.82
2022-09-03T02:59:36.475Z,10.81
2022-09-03T03:00:36.474Z,10.78
2022-09-03T03:01:36.492Z,10.75
2022-09-03T03:02:36.478Z,10.72
2022-09-03T03:03:36.435Z,10.74
2022-09-03T03:04:36.426Z,10.74
2022-09-03T03:05:36.416Z,10.76
2022-09-03T03:06:36.405Z,10.76
2022-09-03T03:07:36.414Z,10.79
2022-09-03T03:08:36.386Z,10.82
2022-09-03T03:09:36.366Z,10.79
2022-09-03T03:10:36.366Z,10.81
2022-09-03T03:11:36.345Z,10.86
2022-09-03T03:12:36.393Z,10.87
2022-09-03T03:13:36.345Z,10.89
2022-09-03T03:14:36.315Z,10.86
2022-09-03T03:15:36.296Z,10.89
2022-09-03T03:16:36.338Z,10.93
2022-09-03T03:17:36.275Z,10.94
2022-09-03T03:18:36.293Z,10.93
2022-09-03T03:19:36.294Z,10.90
2022-09-03T03:20:36.245Z,10.90
2022-09-03T03:21:36.244Z,10.89
2022-09-03T03:22:36.225Z,10.84
2022-09-03T03:23:36.218Z,10.84
2022-09-03T03:24:36.260Z,10.84
2022-09-03T03:25:36.186Z,10.81
2022-09-03T03:26:36.175Z,10.79
2022-09-03T03:27:36.165Z,10.74
2022-09-03T03:28:36.155Z,10.72
2022-09-03T03:29:36.135Z,10.68
2022-09-03T03:30:36.241Z,10.64
2022-09-03T03:31:36.116Z,10.68
2022-09-03T03:32:36.115Z,10.72
2022-09-03T03:33:36.114Z,10.76
2022-09-03T03:34:36.085Z,10.82
2022-09-03T03:35:36.075Z,10.82
2022-09-03T03:36:36.098Z,10.86
2022-09-03T03:37:36.045Z,10.89
2022-09-03T03:38:36.046Z,10.96
2022-09-03T03:39:36.092Z,10.99
2022-09-03T03:40:36.015Z,11.00
2022-09-03T03:41:36.007Z,11.05
2022-09-03T03:42:36.015Z,11.07
2022-09-03T03:43:35.996Z,11.07
2022-09-03T03:44:35.974Z,11.05
2022-09-03T03:45:36.007Z,11.08
2022-09-03T03:46:35.957Z,11.10
2022-09-03T03:47:35.955Z,11.11
2022-09-03T03:48:35.934Z,11.14
2022-09-03T03:49:35.916Z,11.14
2022-09-03T03:50:35.906Z,11.17
2022-09-03T03:51:35.894Z,11.17
2022-09-03T03:52:35.885Z,11.23
2022-09-03T03:53:35.893Z,11.23
2022-09-03T03:54:35.866Z,11.26
2022-09-03T03:55:35.846Z,11.27
2022-09-03T03:56:35.835Z,11.32
2022-09-03T03:57:35.826Z,11.35
2022-09-03T03:58:35.815Z,11.35
2022-09-03T03:59:35.825Z,11.36
2022-09-03T04:00:35.797Z,11.36
2022-09-03T04:01:35.827Z,11.36
2022-09-03T04:02:39.079Z,11.37
2022-09-03T04:03:35.757Z,11.41
2022-09-03T04:04:35.755Z,11.43
2022-09-03T04:05:35.757Z,11.45
2022-09-03T04:06:35.727Z,11.47
2022-09-03T04:07:35.716Z,11.48
2022-09-03T04:08:35.705Z,11.50
2022-09-03T04:09:35.688Z,11.51
2022-09-03T04:10:35.704Z,11.52
2022-09-03T04:11:35.665Z,11.52
2022-09-03T04:12:35.656Z,11.54
2022-09-03T04:13:35.646Z,11.55
2022-09-03T04:14:35.635Z,11.59
2022-09-03T04:15:35.647Z,11.59
2022-09-03T04:16:35.732Z,11.62
2022-09-03T04:17:35.602Z,11.65
2022-09-03T04:18:35.595Z,11.66
2022-09-03T04:19:35.577Z,11.68
2022-09-03T04:20:35.568Z,11.69
2022-09-03T04:21:35.557Z,11.75
2022-09-03T04:22:35.575Z,11.77
2022-09-03T04:23:35.533Z,11.78
2022-09-03T04:24:35.525Z,11.83
2022-09-03T04:25:35.506Z,11.84
2022-09-03T04:26:35.498Z,11.88
2022-09-03T04:27:35.487Z,11.91
2022-09-03T04:28:35.505Z,11.95
2022-09-03T04:29:35.467Z,11.99
2022-09-03T04:30:35.474Z,11.99
2022-09-03T04:31:35.446Z,12.02
2022-09-03T04:32:35.434Z,12.03
2022-09-03T04:33:35.426Z,12.04
2022-09-03T04:34:35.436Z,12.04
2022-09-03T04:35:35.963Z,12.04
2022-09-03T04:36:35.386Z,12.04
2022-09-03T04:37:35.374Z,12.07
2022-09-03T04:38:35.366Z,12.10
2022-09-03T04:39:35.389Z,12.10
2022-09-03T04:40:35.366Z,12.13
2022-09-03T04:41:35.328Z,12.15
2022-09-03T04:42:35.326Z,12.15
2022-09-03T04:43:35.309Z,12.18
2022-09-03T04:44:35.297Z,12.18
2022-09-03T04:45:35.329Z,12.20
2022-09-03T04:46:35.297Z,12.20
2022-09-03T04:47:35.259Z,12.18
2022-09-03T04:48:35.257Z,12.20
2022-09-03T04:49:35.245Z,12.20
2022-09-03T04:50:35.227Z,12.20
2022-09-03T04:51:35.217Z,12.21
2022-09-03T04:52:35.227Z,12.20
2022-09-03T04:53:35.199Z,12.21
2022-09-03T04:54:35.177Z,12.22
2022-09-03T04:55:35.187Z,12.25
2022-09-03T04:56:35.157Z,12.27
2022-09-03T04:57:35.147Z,12.29
2022-09-03T04:58:35.156Z,12.29
2022-09-03T04:59:35.129Z,12.31
2022-09-03T05:00:35.120Z,12.32
2022-09-03T05:01:35.186Z,12.31
2022-09-03T05:02:35.126Z,12.32
2022-09-03T05:03:35.107Z,12.35
2022-09-03T05:04:35.077Z,12.35
2022-09-03T05:05:35.066Z,12.37
2022-09-03T05:06:35.049Z,12.37
2022-09-03T05:07:35.046Z,12.37
2022-09-03T05:08:35.029Z,12.40
2022-09-03T05:09:35.037Z,12.42
2022-09-03T05:10:35.004Z,12.40
2022-09-03T05:11:34.996Z,12.42
2022-09-03T05:12:34.978Z,12.46
2022-09-03T05:13:34.977Z,12.49
2022-09-03T05:14:34.957Z,12.54
2022-09-03T05:15:34.979Z,12.57
2022-09-03T05:16:35.043Z,12.58
2022-09-03T05:17:37.706Z,12.62
2022-09-03T05:18:34.916Z,12.68
2022-09-03T05:19:34.908Z,12.70
2022-09-03T05:20:34.887Z,12.75
2022-09-03T05:21:34.928Z,12.80
2022-09-03T05:22:34.877Z,12.85
2022-09-03T05:23:37.672Z,12.90
2022-09-03T05:24:34.858Z,12.94
2022-09-03T05:25:34.837Z,13.00
2022-09-03T05:26:34.819Z,13.04
2022-09-03T05:27:34.831Z,13.09
2022-09-03T05:28:34.807Z,13.13
2022-09-03T05:29:34.791Z,13.20
2022-09-03T05:30:34.779Z,13.27
2022-09-03T05:31:34.823Z,13.35
2022-09-03T05:32:34.788Z,13.42
2022-09-03T05:33:34.779Z,13.49
2022-09-03T05:34:34.729Z,13.54
2022-09-03T05:35:34.731Z,13.60
2022-09-03T05:36:34.740Z,13.65
2022-09-03T05:37:34.708Z,13.71
2022-09-03T05:38:34.708Z,13.77
2022-09-03T05:39:34.716Z,13.75
2022-09-03T05:40:34.668Z,13.78
2022-09-03T05:41:34.659Z,13.78
2022-09-03T05:42:34.641Z,13.79
2022-09-03T05:43:34.642Z,13.81
2022-09-03T05:44:34.640Z,13.85
2022-09-03T05:45:34.727Z,13.87
2022-09-03T05:46:34.598Z,13.90
2022-09-03T05:47:34.589Z,13.93
2022-09-03T05:48:34.571Z,13.95
2022-09-03T05:49:34.569Z,13.97
2022-09-03T05:50:34.579Z,13.99
2022-09-03T05:51:34.547Z,13.99
2022-09-03T05:52:34.529Z,13.99
2022-09-03T05:53:34.529Z,14.00
2022-09-03T05:54:34.509Z,14.07
2022-09-03T05:55:34.520Z,14.08
2022-09-03T05:56:34.490Z,14.11
2022-09-03T05:57:34.481Z,14.14
2022-09-03T05:58:34.459Z,14.15
2022-09-03T05:59:34.469Z,14.18
2022-09-03T06:00:34.446Z,14.22
2022-09-03T06:01:34.451Z,14.23
2022-09-03T06:02:34.553Z,14.28
2022-09-03T06:03:34.511Z,14.29
2022-09-03T06:04:34.390Z,14.30
2022-09-03T06:05:34.389Z,14.35
2022-09-03T06:06:34.371Z,14.37
2022-09-03T06:07:34.393Z,14.40
2022-09-03T06:08:34.355Z,14.41
2022-09-03T06:09:34.349Z,14.43
2022-09-03T06:10:40.688Z,14.45
2022-09-03T06:11:35.329Z,14.45
2022-09-03T06:12:34.300Z,14.44
2022-09-03T06:13:34.334Z,14.41
2022-09-03T06:14:34.282Z,14.41
2022-09-03T06:15:34.281Z,14.41
2022-09-03T06:16:34.301Z,14.44
2022-09-03T06:17:34.270Z,14.45
2022-09-03T06:18:34.243Z,14.48
2022-09-03T06:19:34.259Z,14.51
2022-09-03T06:20:37.117Z,14.53
2022-09-03T06:21:34.212Z,14.58
2022-09-03T06:22:34.194Z,14.59
2022-09-03T06:23:34.182Z,14.60
2022-09-03T06:24:34.171Z,14.65
2022-09-03T06:25:34.193Z,14.69
2022-09-03T06:26:34.151Z,14.70
2022-09-03T06:27:34.141Z,14.77
2022-09-03T06:28:34.134Z,14.79
2022-09-03T06:29:34.120Z,14.82
2022-09-03T06:30:34.102Z,14.86
2022-09-03T06:31:34.173Z,14.89
2022-09-03T06:32:34.081Z,14.94
2022-09-03T06:33:34.091Z,14.99
2022-09-03T06:34:34.062Z,15.02
2022-09-03T06:35:35.669Z,15.06
2022-09-03T06:36:35.063Z,15.10
2022-09-03T06:37:34.030Z,15.11
2022-09-03T06:38:34.012Z,15.17
2022-09-03T06:39:34.088Z,15.19
2022-09-03T06:40:33.994Z,15.24
2022-09-03T06:41:33.982Z,15.27
2022-09-03T06:42:33.992Z,15.28
2022-09-03T06:43:33.962Z,15.33
2022-09-03T06:44:40.987Z,15.35
2022-09-03T06:45:33.963Z,15.39
2022-09-03T06:46:33.921Z,15.43
2022-09-03T06:47:33.917Z,15.46
2022-09-03T06:48:33.928Z,15.49
2022-09-03T06:49:33.898Z,15.54
2022-09-03T06:50:34.762Z,15.57
2022-09-03T06:51:33.869Z,15.58
2022-09-03T06:52:33.859Z,15.61
2022-09-03T06:53:33.848Z,15.64
2022-09-03T06:54:33.849Z,15.68
2022-09-03T06:55:33.818Z,15.72
2022-09-03T06:56:38.879Z,15.75
2022-09-03T06:57:34.799Z,15.77
2022-09-03T06:58:33.787Z,15.82
2022-09-03T06:59:33.808Z,15.90
2022-09-03T07:00:33.795Z,15.94
2022-09-03T07:01:33.844Z,15.98
2022-09-03T07:02:33.747Z,16.05
2022-09-03T07:03:33.730Z,16.12
2022-09-03T07:04:33.719Z,16.20
2022-09-03T07:05:33.730Z,16.28
2022-09-03T07:06:33.690Z,16.38
2022-09-03T07:07:33.688Z,16.42
2022-09-03T07:08:33.670Z,16.50
2022-09-03T07:09:33.660Z,16.58
2022-09-03T07:10:33.659Z,16.68
2022-09-03T07:11:33.659Z,16.76
2022-09-03T07:12:33.628Z,16.86
2022-09-03T07:13:33.619Z,16.96
2022-09-03T07:14:33.611Z,17.06
2022-09-03T07:15:33.599Z,17.15
2022-09-03T07:16:33.661Z,17.24
2022-09-03T07:17:33.591Z,17.31
2022-09-03T07:18:33.561Z,17.39
2022-09-03T07:19:33.550Z,17.45
2022-09-03T07:20:33.561Z,17.52
2022-09-03T07:21:33.535Z,17.60
2022-09-03T07:22:33.526Z,17.68
2022-09-03T07:23:33.531Z,17.76
2022-09-03T07:24:33.501Z,17.83
2022-09-03T07:25:33.491Z,17.90
2022-09-03T07:26:33.472Z,17.97
2022-09-03T07:27:33.462Z,18.03
2022-09-03T07:28:33.451Z,18.10
2022-09-03T07:29:33.463Z,18.16
2022-09-03T07:30:33.434Z,18.18
2022-09-03T07:31:33.470Z,18.18
2022-09-03T07:32:33.402Z,18.18
2022-09-03T07:33:33.985Z,18.20
2022-09-03T07:34:33.403Z,18.22
2022-09-03T07:35:33.382Z,18.23
2022-09-03T07:36:35.359Z,18.28
2022-09-03T07:37:33.352Z,18.29
2022-09-03T07:38:33.343Z,18.33
2022-09-03T07:39:33.382Z,18.35
2022-09-03T07:40:33.365Z,18.37
2022-09-03T07:41:33.325Z,18.38
2022-09-03T07:42:33.302Z,18.38
2022-09-03T07:43:33.293Z,18.38
2022-09-03T07:44:33.276Z,18.40
2022-09-03T07:45:33.275Z,18.43
2022-09-03T07:46:33.311Z,18.43
2022-09-03T07:47:33.244Z,18.47
2022-09-03T07:48:36.717Z,18.50
2022-09-03T07:49:33.225Z,18.52
2022-09-03T07:50:33.214Z,18.52
2022-09-03T07:51:33.203Z,18.52
2022-09-03T07:52:33.203Z,18.53
2022-09-03T07:53:33.177Z,18.58
2022-09-03T07:54:33.165Z,18.59
2022-09-03T07:55:33.157Z,18.59
2022-09-03T07:56:33.145Z,18.56
2022-09-03T07:57:33.164Z,18.53
2022-09-03T07:58:33.116Z,18.49
2022-09-03T07:59:33.106Z,18.45
2022-09-03T08:00:33.140Z,18.40
2022-09-03T08:01:33.089Z,18.38
2022-09-03T08:02:33.097Z,18.35
2022-09-03T08:03:33.136Z,18.35
2022-09-03T08:04:33.048Z,18.38
2022-09-03T08:05:33.036Z,18.38
2022-09-03T08:06:33.027Z,18.38
2022-09-03T08:07:33.036Z,18.35
2022-09-03T08:08:35.499Z,18.38
2022-09-03T08:09:33.005Z,18.38
2022-09-03T08:10:32.977Z,18.38
2022-09-03T08:11:32.976Z,18.41
2022-09-03T08:12:32.957Z,18.47
2022-09-03T08:13:32.947Z,18.53
2022-09-03T08:14:32.959Z,18.60
2022-09-03T08:15:32.926Z,18.65
2022-09-03T08:16:32.938Z,18.68
2022-09-03T08:17:32.919Z,18.71
2022-09-03T08:18:32.886Z,18.75
2022-09-03T08:19:32.878Z,18.80
2022-09-03T08:20:32.880Z,18.81
2022-09-03T08:21:32.857Z,18.80
2022-09-03T08:22:32.848Z,18.77
2022-09-03T08:23:32.839Z,18.74
2022-09-03T08:24:32.830Z,18.74
2022-09-03T08:25:32.812Z,18.74
2022-09-03T08:26:32.830Z,18.75
2022-09-03T08:27:32.789Z,18.75
2022-09-03T08:28:32.769Z,18.74
2022-09-03T08:29:32.771Z,18.77
2022-09-03T08:30:32.761Z,18.74
2022-09-03T08:31:32.813Z,18.71
2022-09-03T08:32:32.749Z,18.66
2022-09-03T08:33:32.720Z,18.62
2022-09-03T08:34:32.710Z,18.56
2022-09-03T08:35:32.703Z,18.58
2022-09-03T08:36:32.690Z,18.59
2022-09-03T08:37:32.700Z,18.53
2022-09-03T08:38:32.660Z,18.55
2022-09-03T08:39:32.752Z,18.55
2022-09-03T08:40:32.641Z,18.58
2022-09-03T08:41:32.621Z,18.55
2022-09-03T08:42:32.621Z,18.50
2022-09-03T08:43:32.631Z,18.50
2022-09-03T08:44:32.591Z,18.49
2022-09-03T08:45:32.581Z,18.52
2022-09-03T08:46:32.637Z,18.55
2022-09-03T08:47:32.561Z,18.60
2022-09-03T08:48:32.563Z,18.63
2022-09-03T08:49:32.563Z,18.63
2022-09-03T08:50:32.522Z,18.66
2022-09-03T08:51:32.523Z,18.68
2022-09-03T08:52:32.590Z,18.66
2022-09-03T08:53:32.492Z,18.68
2022-09-03T08:54:32.476Z,18.66
2022-09-03T08:55:32.495Z,18.65
2022-09-03T08:56:32.484Z,18.68
2022-09-03T08:57:32.510Z,18.71
2022-09-03T08:58:32.433Z,18.73
2022-09-03T08:59:33.090Z,18.78
2022-09-03T09:00:32.428Z,18.81
2022-09-03T09:01:32.462Z,18.78
2022-09-03T09:02:32.507Z,18.80
2022-09-03T09:03:32.403Z,18.83
2022-09-03T09:04:32.385Z,18.88
2022-09-03T09:05:32.354Z,18.88
2022-09-03T09:06:32.382Z,18.78
2022-09-03T09:07:32.342Z,18.74
2022-09-03T09:08:32.325Z,18.65
2022-09-03T09:09:32.334Z,18.63
2022-09-03T09:10:32.305Z,18.70
2022-09-03T09:11:32.314Z,18.71
2022-09-03T09:12:38.487Z,18.70
2022-09-03T09:13:33.273Z,18.80
2022-09-03T09:14:32.246Z,18.90
2022-09-03T09:15:32.235Z,18.99
2022-09-03T09:16:32.225Z,19.09
2022-09-03T09:17:32.216Z,19.31
2022-09-03T09:18:32.225Z,19.40
2022-09-03T09:19:32.197Z,19.47
2022-09-03T09:20:32.185Z,19.55
2022-09-03T09:21:32.167Z,19.73
2022-09-03T09:22:32.165Z,19.91
2022-09-03T09:23:32.158Z,20.00
2022-09-03T09:24:32.197Z,20.14
2022-09-03T09:25:32.131Z,20.29
2022-09-03T09:26:32.118Z,20.43
2022-09-03T09:27:32.106Z,20.58
2022-09-03T09:28:32.098Z,20.72
2022-09-03T09:29:32.103Z,20.77
2022-09-03T09:30:32.098Z,20.78
2022-09-03T09:31:32.093Z,20.69
2022-09-03T09:32:32.055Z,20.60
2022-09-03T09:33:32.038Z,20.80
2022-09-03T09:34:32.030Z,21.11
2022-09-03T09:35:32.009Z,21.33
2022-09-03T09:36:32.050Z,21.57
2022-09-03T09:37:31.989Z,21.79
2022-09-03T09:38:31.978Z,21.85
2022-09-03T09:39:32.200Z,22.00
2022-09-03T09:40:31.960Z,22.10
2022-09-03T09:41:31.939Z,21.99
2022-09-03T09:42:31.961Z,21.82
2022-09-03T09:43:31.921Z,21.77
2022-09-03T09:44:31.920Z,21.75
2022-09-03T09:45:31.903Z,21.83
2022-09-03T09:46:31.917Z,21.89
2022-09-03T09:47:31.871Z,21.93
2022-09-03T09:48:31.890Z,22.07
2022-09-03T09:49:31.853Z,22.10
2022-09-03T09:50:31.849Z,22.02
2022-09-03T09:51:31.831Z,21.96
2022-09-03T09:52:31.836Z,21.82
2022-09-03T09:53:31.834Z,21.79
2022-09-03T09:54:31.805Z,21.76
2022-09-03T09:55:31.801Z,21.77
2022-09-03T09:56:31.780Z,21.67
2022-09-03T09:57:31.762Z,21.52
2022-09-03T09:58:31.761Z,21.35
2022-09-03T09:59:31.774Z,21.09
2022-09-03T10:00:31.733Z,20.72
2022-09-03T10:01:31.822Z,20.47
2022-09-03T10:02:31.801Z,20.40
2022-09-03T10:03:31.705Z,20.56
2022-09-03T10:04:33.462Z,20.78
2022-09-03T10:05:31.693Z,20.97
2022-09-03T10:06:31.673Z,21.17
2022-09-03T10:07:31.654Z,21.36
2022-09-03T10:08:31.644Z,21.40
2022-09-03T10:09:31.908Z,21.37
2022-09-03T10:10:31.646Z,21.22
2022-09-03T10:11:31.615Z,21.12
2022-09-03T10:12:31.603Z,20.99
2022-09-03T10:13:31.585Z,20.84
2022-09-03T10:14:31.576Z,20.80
2022-09-03T10:15:31.621Z,20.82
2022-09-03T10:16:31.575Z,20.93
2022-09-03T10:17:36.885Z,21.06
2022-09-03T10:18:32.535Z,21.18
2022-09-03T10:19:31.528Z,21.22
2022-09-03T10:20:31.527Z,21.32
2022-09-03T10:21:31.516Z,21.43
2022-09-03T10:22:31.644Z,21.50
2022-09-03T10:23:31.475Z,21.43
2022-09-03T10:24:31.466Z,21.17
2022-09-03T10:25:31.448Z,21.07
2022-09-03T10:26:32.221Z,20.92
2022-09-03T10:27:32.084Z,20.93
2022-09-03T10:28:31.438Z,20.95
2022-09-03T10:29:31.408Z,21.03
2022-09-03T10:30:31.407Z,21.18
2022-09-03T10:31:31.476Z,21.18
2022-09-03T10:32:34.011Z,21.20
2022-09-03T10:33:32.387Z,21.24
2022-09-03T10:34:31.349Z,21.24
2022-09-03T10:35:31.344Z,21.12
2022-09-03T10:36:31.338Z,21.02
2022-09-03T10:37:31.319Z,20.99
2022-09-03T10:38:31.309Z,20.93
2022-09-03T10:39:31.364Z,20.88
2022-09-03T10:40:32.290Z,20.87
2022-09-03T10:41:31.277Z,21.00
2022-09-03T10:42:31.271Z,21.15
2022-09-03T10:43:31.261Z,21.24
2022-09-03T10:44:31.261Z,21.25
2022-09-03T10:45:31.250Z,21.14
2022-09-03T10:46:32.260Z,21.15
2022-09-03T10:47:31.210Z,21.06
2022-09-03T10:48:31.210Z,20.96
2022-09-03T10:49:31.189Z,20.90
2022-09-03T10:50:31.181Z,20.75
2022-09-03T10:51:31.181Z,20.70
2022-09-03T10:52:31.161Z,20.72
2022-09-03T10:53:31.143Z,20.87
2022-09-03T10:54:31.142Z,21.03
2022-09-03T10:55:31.122Z,21.22
2022-09-03T10:56:31.133Z,21.42
2022-09-03T10:57:31.095Z,21.61
2022-09-03T10:58:31.092Z,21.83
2022-09-03T10:59:31.084Z,22.06
2022-09-03T11:00:31.071Z,22.30
2022-09-03T11:01:31.121Z,22.54
2022-09-03T11:02:31.121Z,22.78
2022-09-03T11:03:31.037Z,22.93
2022-09-03T11:04:31.033Z,23.02
2022-09-03T11:05:32.004Z,23.10
2022-09-03T11:06:31.002Z,22.90
2022-09-03T11:07:31.001Z,22.76
2022-09-03T11:08:31.003Z,22.90
2022-09-03T11:09:30.968Z,23.12
2022-09-03T11:10:31.426Z,23.39
2022-09-03T11:11:30.966Z,23.50
2022-09-03T11:12:30.933Z,23.55
2022-09-03T11:13:30.915Z,23.44
2022-09-03T11:14:30.935Z,23.20
2022-09-03T11:15:30.929Z,23.05
2022-09-03T11:16:30.885Z,23.00
2022-09-03T11:17:32.105Z,23.05
2022-09-03T11:18:30.866Z,23.03
2022-09-03T11:19:30.854Z,22.87
2022-09-03T11:20:30.866Z,22.94
2022-09-03T11:21:30.826Z,23.06
2022-09-03T11:22:30.829Z,23.03
2022-09-03T11:23:30.814Z,22.78
2022-09-03T11:24:30.802Z,22.59
2022-09-03T11:25:30.828Z,22.68
2022-09-03T11:26:30.778Z,22.84
2022-09-03T11:27:31.251Z,23.00
2022-09-03T11:28:30.767Z,23.09
2022-09-03T11:29:30.748Z,22.94
2022-09-03T11:30:30.739Z,22.72
2022-09-03T11:31:30.749Z,22.72
2022-09-03T11:32:30.713Z,22.73
2022-09-03T11:33:30.707Z,22.72
2022-09-03T11:34:32.199Z,22.65
2022-09-03T11:35:30.690Z,22.50
2022-09-03T11:36:30.680Z,22.43
2022-09-03T11:37:30.679Z,22.30
2022-09-03T11:38:30.679Z,22.08
2022-09-03T11:39:30.686Z,22.14
2022-09-03T11:40:30.629Z,22.26
2022-09-03T11:41:30.620Z,22.30
2022-09-03T11:42:30.663Z,22.35
2022-09-03T11:43:30.622Z,22.47
2022-09-03T11:44:30.581Z,22.66
2022-09-03T11:45:30.562Z,22.69
2022-09-03T11:46:30.697Z,22.44
2022-09-03T11:47:30.545Z,22.22
2022-09-03T11:48:30.542Z,22.08
2022-09-03T11:49:30.545Z,22.15
2022-09-03T11:50:30.602Z,22.22
2022-09-03T11:51:30.504Z,22.30
2022-09-03T11:52:30.492Z,22.30
2022-09-03T11:53:30.519Z,22.25
2022-09-03T11:54:30.521Z,22.28
2022-09-03T11:55:31.837Z,22.35
2022-09-03T11:56:31.464Z,22.43
2022-09-03T11:57:30.433Z,22.53
2022-09-03T11:58:30.424Z,22.59
2022-09-03T11:59:30.425Z,22.62
2022-09-03T12:00:30.429Z,22.69
2022-09-03T12:01:30.392Z,22.65
2022-09-03T12:02:30.463Z,22.62
2022-09-03T12:03:30.369Z,22.47
2022-09-03T12:04:30.394Z,22.45
2022-09-03T12:05:30.344Z,22.51
2022-09-03T12:06:30.355Z,22.68
2022-09-03T12:07:30.317Z,22.87
2022-09-03T12:08:30.315Z,22.94
2022-09-03T12:09:30.296Z,23.02
2022-09-03T12:10:30.296Z,23.21
2022-09-03T12:11:30.303Z,23.40
2022-09-03T12:12:30.266Z,23.50
2022-09-03T12:13:30.247Z,23.63
2022-09-03T12:14:30.246Z,23.78
2022-09-03T12:15:30.228Z,23.83
2022-09-03T12:16:30.260Z,23.83
2022-09-03T12:17:30.227Z,23.78
2022-09-03T12:18:30.206Z,23.92
2022-09-03T12:19:30.187Z,24.13
2022-09-03T12:20:30.179Z,24.18
2022-09-03T12:21:30.168Z,24.26
2022-09-03T12:22:30.178Z,24.24
2022-09-03T12:23:30.147Z,24.06
2022-09-03T12:24:31.822Z,24.11
2022-09-03T12:25:30.129Z,24.21
2022-09-03T12:26:30.109Z,24.17
2022-09-03T12:27:30.100Z,23.96
2022-09-03T12:28:30.119Z,23.76
2022-09-03T12:29:31.101Z,23.77
2022-09-03T12:30:30.104Z,23.74
2022-09-03T12:31:30.066Z,23.68
2022-09-03T12:32:30.050Z,23.58
2022-09-03T12:33:30.039Z,23.43
2022-09-03T12:34:30.051Z,23.34
2022-09-03T12:35:58.938Z,23.23
2022-09-03T12:36:31.011Z,23.02
2022-09-03T12:38:30.981Z,22.99
2022-09-03T12:40:31.065Z,23.24
2022-09-03T12:41:30.087Z,23.27
2022-09-03T12:42:29.942Z,23.40
2022-09-03T12:43:38.387Z,23.46
2022-09-03T12:46:10.027Z,23.59
2022-09-03T12:46:40.892Z,23.62
2022-09-03T12:47:39.905Z,23.63
2022-09-03T12:48:43.596Z,23.73
2022-09-03T12:49:39.781Z,23.88
2022-09-03T12:50:42.557Z,24.05
2022-09-03T12:51:50.963Z,24.26
2022-09-03T12:52:40.741Z,24.40
2022-09-03T12:53:39.731Z,24.57
2022-09-03T12:54:39.714Z,24.68
2022-09-03T12:55:39.712Z,24.55